CMP266 KFLL-MPTO
Flight info
| Callsign | CMP266 |
|---|---|
| Flight time | 2h 28m |
| Altitude | 35000 |
| Route | MAYNR3 FUNDI UM335 ARNAL DCT SEKMA OSUPA2 |
| Aircraft | B738/M-SDE2E3FGHIRWXY/LB1 |
Departure
| Time | 2026-05-06 01:44 |
|---|---|
| Airport | Fort Lauderdale Hollywood International Airport (KFLL) |
Arrival
| Time | 2026-05-06 04:13 |
|---|---|
| Airport | Tocumen International Airport (MPTO) |
| Time | Latitude | Longitude | Altitude | Speed | Heading |
|---|---|---|---|---|---|
| 2026-05-06 01:20 | 26.07344 | -80.13641 | 15 ft | 0 kts | 104° |
| 2026-05-06 01:32 | 26.07344 | -80.13644 | 15 ft | 2 kts | 104° |
| 2026-05-06 01:33 | 26.07351 | -80.13671 | 16 ft | 3 kts | 104° |
| 2026-05-06 01:33 | 26.07358 | -80.13693 | 17 ft | 4 kts | 136° |
| 2026-05-06 01:33 | 26.07380 | -80.13706 | 17 ft | 4 kts | 172° |
| 2026-05-06 01:33 | 26.07407 | -80.13708 | 17 ft | 4 kts | 180° |
| 2026-05-06 01:34 | 26.07432 | -80.13709 | 17 ft | 4 kts | 156° |
| 2026-05-06 01:34 | 26.07444 | -80.13721 | 18 ft | 4 kts | 70° |
| 2026-05-06 01:34 | 26.07429 | -80.13735 | 17 ft | 4 kts | 1° |
| 2026-05-06 01:34 | 26.07406 | -80.13735 | 17 ft | 1 kts | 360° |
| 2026-05-06 01:37 | 26.07425 | -80.13735 | 16 ft | 5 kts | 360° |
| 2026-05-06 01:37 | 26.07463 | -80.13752 | 16 ft | 7 kts | 307° |
| 2026-05-06 01:37 | 26.07470 | -80.13847 | 15 ft | 16 kts | 274° |
| 2026-05-06 01:37 | 26.07485 | -80.13967 | 15 ft | 16 kts | 270° |
| 2026-05-06 01:38 | 26.07486 | -80.14113 | 15 ft | 20 kts | 270° |
| 2026-05-06 01:38 | 26.07486 | -80.14266 | 15 ft | 20 kts | 270° |
| 2026-05-06 01:38 | 26.07487 | -80.14415 | 15 ft | 19 kts | 270° |
| 2026-05-06 01:38 | 26.07488 | -80.14559 | 15 ft | 18 kts | 270° |
| 2026-05-06 01:39 | 26.07489 | -80.14698 | 15 ft | 18 kts | 270° |
| 2026-05-06 01:39 | 26.07488 | -80.14832 | 15 ft | 17 kts | 270° |
| 2026-05-06 01:39 | 26.07488 | -80.14969 | 15 ft | 18 kts | 270° |
| 2026-05-06 01:39 | 26.07489 | -80.15105 | 15 ft | 17 kts | 270° |
| 2026-05-06 01:40 | 26.07490 | -80.15236 | 15 ft | 17 kts | 270° |
| 2026-05-06 01:40 | 26.07491 | -80.15363 | 15 ft | 16 kts | 270° |
| 2026-05-06 01:40 | 26.07491 | -80.15488 | 15 ft | 16 kts | 270° |
| 2026-05-06 01:40 | 26.07492 | -80.15622 | 15 ft | 17 kts | 270° |
| 2026-05-06 01:41 | 26.07493 | -80.15752 | 15 ft | 17 kts | 270° |
| 2026-05-06 01:41 | 26.07494 | -80.15878 | 15 ft | 16 kts | 270° |
| 2026-05-06 01:41 | 26.07494 | -80.16000 | 15 ft | 15 kts | 270° |
| 2026-05-06 01:41 | 26.07495 | -80.16117 | 15 ft | 15 kts | 270° |
| 2026-05-06 01:42 | 26.07496 | -80.16237 | 15 ft | 16 kts | 270° |
| 2026-05-06 01:42 | 26.07496 | -80.16372 | 15 ft | 18 kts | 271° |
| 2026-05-06 01:42 | 26.07497 | -80.16510 | 15 ft | 17 kts | 270° |
| 2026-05-06 01:42 | 26.07498 | -80.16594 | 15 ft | 9 kts | 272° |
| 2026-05-06 01:43 | 26.07535 | -80.16641 | 15 ft | 9 kts | 346° |
| 2026-05-06 01:43 | 26.07594 | -80.16643 | 16 ft | 8 kts | 0° |
| 2026-05-06 01:43 | 26.07652 | -80.16642 | 17 ft | 8 kts | 1° |
| 2026-05-06 01:43 | 26.07695 | -80.16580 | 17 ft | 18 kts | 93° |
| 2026-05-06 01:44 | 26.07693 | -80.16165 | 18 ft | 90 kts | 90° |
| 2026-05-06 01:44 | 26.07689 | -80.15242 | 15 ft | 150 kts | 89° |
| 2026-05-06 01:44 | 26.07669 | -80.13965 | 423 ft | 171 kts | 90° |
| 2026-05-06 01:44 | 26.07682 | -80.12574 | 1055 ft | 188 kts | 88° |
| 2026-05-06 01:45 | 26.07703 | -80.11113 | 1882 ft | 186 kts | 89° |
| 2026-05-06 01:45 | 26.07731 | -80.09629 | 2505 ft | 201 kts | 87° |
| 2026-05-06 01:45 | 26.07706 | -80.07973 | 2709 ft | 228 kts | 101° |
| 2026-05-06 01:45 | 26.06878 | -80.06370 | 2969 ft | 258 kts | 139° |
| 2026-05-06 01:46 | 26.05216 | -80.05547 | 3579 ft | 270 kts | 169° |
| 2026-05-06 01:46 | 26.03340 | -80.05248 | 3978 ft | 274 kts | 173° |
| 2026-05-06 01:46 | 26.01454 | -80.04953 | 4007 ft | 273 kts | 173° |
| 2026-05-06 01:46 | 25.99572 | -80.04657 | 4031 ft | 274 kts | 173° |
| 2026-05-06 01:47 | 25.97680 | -80.04357 | 4037 ft | 275 kts | 173° |
| 2026-05-06 01:47 | 25.95788 | -80.04057 | 4035 ft | 275 kts | 173° |
| 2026-05-06 01:47 | 25.93892 | -80.03754 | 4031 ft | 275 kts | 173° |
| 2026-05-06 01:47 | 25.91996 | -80.03451 | 4038 ft | 276 kts | 173° |
| 2026-05-06 01:48 | 25.90084 | -80.03143 | 4421 ft | 280 kts | 173° |
| 2026-05-06 01:48 | 25.88168 | -80.02821 | 5355 ft | 278 kts | 173° |
| 2026-05-06 01:48 | 25.86274 | -80.02524 | 5804 ft | 278 kts | 181° |
| 2026-05-06 01:48 | 25.84407 | -80.03030 | 6049 ft | 275 kts | 210° |
| 2026-05-06 01:49 | 25.82775 | -80.04138 | 6042 ft | 274 kts | 215° |
| 2026-05-06 01:49 | 25.81213 | -80.05291 | 6029 ft | 273 kts | 216° |
| 2026-05-06 01:49 | 25.79632 | -80.06451 | 6032 ft | 273 kts | 215° |
| 2026-05-06 01:49 | 25.78037 | -80.07596 | 6060 ft | 275 kts | 214° |
| 2026-05-06 01:50 | 25.76407 | -80.08743 | 6551 ft | 279 kts | 214° |
| 2026-05-06 01:50 | 25.74766 | -80.09879 | 7410 ft | 278 kts | 214° |
| 2026-05-06 01:50 | 25.73115 | -80.11009 | 8166 ft | 281 kts | 214° |
| 2026-05-06 01:50 | 25.71436 | -80.12150 | 8898 ft | 284 kts | 214° |
| 2026-05-06 01:51 | 25.69738 | -80.13297 | 9666 ft | 287 kts | 214° |
| 2026-05-06 01:51 | 25.68581 | -80.14075 | 10148 ft | 289 kts | 214° |
| 2026-05-06 01:51 | 25.66816 | -80.15262 | 10464 ft | 308 kts | 214° |
| 2026-05-06 01:51 | 25.64272 | -80.16970 | 10675 ft | 337 kts | 214° |
| 2026-05-06 01:52 | 25.62893 | -80.17893 | 10835 ft | 347 kts | 214° |
| 2026-05-06 01:52 | 25.60797 | -80.19291 | 11315 ft | 354 kts | 213° |
| 2026-05-06 01:52 | 25.58676 | -80.20702 | 11922 ft | 357 kts | 213° |
| 2026-05-06 01:52 | 25.56533 | -80.22126 | 12540 ft | 361 kts | 213° |
| 2026-05-06 01:53 | 25.54397 | -80.23546 | 13140 ft | 365 kts | 213° |
| 2026-05-06 01:53 | 25.52207 | -80.25002 | 13747 ft | 369 kts | 213° |
| 2026-05-06 01:53 | 25.49992 | -80.26474 | 14316 ft | 373 kts | 213° |
| 2026-05-06 01:53 | 25.47754 | -80.27961 | 14898 ft | 376 kts | 214° |
| 2026-05-06 01:54 | 25.45499 | -80.29459 | 15493 ft | 380 kts | 214° |
| 2026-05-06 01:54 | 25.43224 | -80.30969 | 16085 ft | 383 kts | 214° |
| 2026-05-06 01:54 | 25.40930 | -80.32492 | 16661 ft | 386 kts | 214° |
| 2026-05-06 01:54 | 25.38614 | -80.34029 | 17237 ft | 390 kts | 214° |
| 2026-05-06 01:55 | 25.36275 | -80.35580 | 17795 ft | 393 kts | 214° |
| 2026-05-06 01:55 | 25.33917 | -80.37143 | 18339 ft | 397 kts | 214° |
| 2026-05-06 01:55 | 25.31536 | -80.38721 | 18802 ft | 400 kts | 214° |
| 2026-05-06 01:55 | 25.29139 | -80.40309 | 19267 ft | 404 kts | 214° |
| 2026-05-06 01:56 | 25.26720 | -80.41910 | 19711 ft | 407 kts | 214° |
| 2026-05-06 01:56 | 25.24265 | -80.43503 | 20158 ft | 412 kts | 212° |
| 2026-05-06 01:56 | 25.21656 | -80.44761 | 20578 ft | 420 kts | 202° |
| 2026-05-06 01:56 | 25.18849 | -80.45707 | 21013 ft | 424 kts | 200° |
| 2026-05-06 01:57 | 25.15998 | -80.46604 | 21427 ft | 428 kts | 200° |
| 2026-05-06 01:57 | 25.13123 | -80.47501 | 21822 ft | 431 kts | 200° |
| 2026-05-06 01:57 | 25.10223 | -80.48417 | 22217 ft | 434 kts | 200° |
| 2026-05-06 01:57 | 25.07313 | -80.49350 | 22604 ft | 437 kts | 201° |
| 2026-05-06 01:58 | 25.04384 | -80.50301 | 22982 ft | 440 kts | 201° |
| 2026-05-06 01:58 | 25.01431 | -80.51265 | 23344 ft | 444 kts | 201° |
| 2026-05-06 01:58 | 24.98463 | -80.52236 | 23691 ft | 447 kts | 201° |
| 2026-05-06 01:58 | 24.95471 | -80.53214 | 23973 ft | 450 kts | 201° |
| 2026-05-06 01:59 | 24.92462 | -80.54197 | 24285 ft | 452 kts | 201° |
| 2026-05-06 01:59 | 24.89439 | -80.55183 | 24589 ft | 454 kts | 201° |
| 2026-05-06 01:59 | 24.86405 | -80.56180 | 24889 ft | 455 kts | 203° |
| 2026-05-06 01:59 | 24.83541 | -80.57612 | 25165 ft | 449 kts | 217° |
| 2026-05-06 02:00 | 24.81090 | -80.59700 | 25485 ft | 442 kts | 229° |
| 2026-05-06 02:00 | 24.79129 | -80.62259 | 25801 ft | 435 kts | 242° |
| 2026-05-06 02:00 | 24.77515 | -80.65072 | 26117 ft | 435 kts | 243° |
| 2026-05-06 02:00 | 24.75939 | -80.67876 | 26401 ft | 437 kts | 243° |
| 2026-05-06 02:01 | 24.74332 | -80.70728 | 26697 ft | 440 kts | 243° |
| 2026-05-06 02:01 | 24.72700 | -80.73591 | 27009 ft | 441 kts | 243° |
| 2026-05-06 02:01 | 24.71055 | -80.76447 | 27324 ft | 443 kts | 243° |
| 2026-05-06 02:01 | 24.69397 | -80.79305 | 27637 ft | 444 kts | 242° |
| 2026-05-06 02:02 | 24.67726 | -80.82177 | 27940 ft | 446 kts | 242° |
| 2026-05-06 02:02 | 24.66048 | -80.85057 | 28231 ft | 448 kts | 242° |
| 2026-05-06 02:02 | 24.64364 | -80.87946 | 28519 ft | 450 kts | 242° |
| 2026-05-06 02:02 | 24.62674 | -80.90847 | 28791 ft | 451 kts | 242° |
| 2026-05-06 02:03 | 24.60976 | -80.93759 | 29062 ft | 453 kts | 242° |
| 2026-05-06 02:03 | 24.59254 | -80.96662 | 29332 ft | 457 kts | 238° |
| 2026-05-06 02:03 | 24.56979 | -80.99179 | 29535 ft | 472 kts | 220° |
| 2026-05-06 02:03 | 24.54061 | -81.00913 | 29819 ft | 484 kts | 205° |
| 2026-05-06 02:04 | 24.50756 | -81.01766 | 30072 ft | 496 kts | 188° |
| 2026-05-06 02:04 | 24.47329 | -81.01834 | 30328 ft | 499 kts | 183° |
| 2026-05-06 02:04 | 24.43849 | -81.01758 | 30567 ft | 501 kts | 182° |
| 2026-05-06 02:04 | 24.40357 | -81.01648 | 30820 ft | 502 kts | 182° |
| 2026-05-06 02:05 | 24.36868 | -81.01551 | 31119 ft | 501 kts | 182° |
| 2026-05-06 02:05 | 24.33383 | -81.01480 | 31430 ft | 500 kts | 183° |
| 2026-05-06 02:05 | 24.29892 | -81.01433 | 31721 ft | 500 kts | 183° |
| 2026-05-06 02:05 | 24.26412 | -81.01402 | 31994 ft | 500 kts | 183° |
| 2026-05-06 02:06 | 24.22926 | -81.01378 | 32289 ft | 500 kts | 183° |
| 2026-05-06 02:06 | 24.19493 | -81.01355 | 32574 ft | 500 kts | 183° |
| 2026-05-06 02:06 | 24.16012 | -81.01330 | 32874 ft | 500 kts | 183° |
| 2026-05-06 02:06 | 24.12527 | -81.01303 | 33151 ft | 500 kts | 183° |
| 2026-05-06 02:07 | 24.09045 | -81.01275 | 33430 ft | 500 kts | 183° |
| 2026-05-06 02:07 | 24.05564 | -81.01246 | 33704 ft | 501 kts | 183° |
| 2026-05-06 02:07 | 24.02077 | -81.01217 | 33964 ft | 501 kts | 183° |
| 2026-05-06 02:07 | 23.98590 | -81.01179 | 34210 ft | 502 kts | 182° |
| 2026-05-06 02:08 | 23.95090 | -81.01070 | 34424 ft | 503 kts | 181° |
| 2026-05-06 02:08 | 23.91588 | -81.00912 | 34645 ft | 504 kts | 181° |
| 2026-05-06 02:08 | 23.88082 | -81.00737 | 34883 ft | 504 kts | 181° |
| 2026-05-06 02:08 | 23.84576 | -81.00562 | 35060 ft | 505 kts | 181° |
| 2026-05-06 02:09 | 23.77555 | -81.00237 | 35049 ft | 508 kts | 181° |
| 2026-05-06 02:09 | 23.70508 | -80.99931 | 35037 ft | 504 kts | 181° |
| 2026-05-06 02:10 | 23.63521 | -80.99634 | 35048 ft | 502 kts | 181° |
| 2026-05-06 02:10 | 23.56549 | -80.99338 | 35050 ft | 501 kts | 181° |
| 2026-05-06 02:11 | 23.49578 | -80.99041 | 35050 ft | 501 kts | 181° |
| 2026-05-06 02:11 | 23.42618 | -80.98744 | 35052 ft | 501 kts | 181° |
| 2026-05-06 02:12 | 23.35642 | -80.98447 | 35055 ft | 502 kts | 181° |
| 2026-05-06 02:12 | 23.28654 | -80.98149 | 35054 ft | 503 kts | 181° |
| 2026-05-06 02:13 | 23.21650 | -80.97860 | 35054 ft | 504 kts | 181° |
| 2026-05-06 02:13 | 23.14630 | -80.97580 | 35053 ft | 505 kts | 181° |
| 2026-05-06 02:14 | 23.07641 | -80.97298 | 35056 ft | 506 kts | 181° |
| 2026-05-06 02:14 | 23.00597 | -80.97046 | 35057 ft | 507 kts | 181° |
| 2026-05-06 02:15 | 22.93541 | -80.96778 | 35062 ft | 507 kts | 181° |
| 2026-05-06 02:15 | 22.86485 | -80.96492 | 35057 ft | 507 kts | 180° |
| 2026-05-06 02:16 | 22.79428 | -80.96209 | 35060 ft | 507 kts | 180° |
| 2026-05-06 02:16 | 22.72377 | -80.95929 | 35057 ft | 506 kts | 180° |
| 2026-05-06 02:17 | 22.65336 | -80.95652 | 35059 ft | 506 kts | 180° |
| 2026-05-06 02:17 | 22.58307 | -80.95375 | 35059 ft | 505 kts | 180° |
| 2026-05-06 02:18 | 22.51284 | -80.95099 | 35057 ft | 505 kts | 180° |
| 2026-05-06 02:18 | 22.44273 | -80.94824 | 35063 ft | 504 kts | 180° |
| 2026-05-06 02:19 | 22.37260 | -80.94548 | 35059 ft | 504 kts | 180° |
| 2026-05-06 02:19 | 22.30297 | -80.94275 | 35065 ft | 503 kts | 180° |
| 2026-05-06 02:20 | 22.19796 | -80.93864 | 35064 ft | 503 kts | 180° |
| 2026-05-06 02:21 | 22.12789 | -80.93590 | 35064 ft | 503 kts | 180° |
| 2026-05-06 02:21 | 22.05789 | -80.93317 | 35058 ft | 503 kts | 180° |
| 2026-05-06 02:22 | 21.98781 | -80.93043 | 35058 ft | 503 kts | 180° |
| 2026-05-06 02:22 | 21.91781 | -80.92770 | 35056 ft | 504 kts | 180° |
| 2026-05-06 02:23 | 21.84815 | -80.92499 | 35058 ft | 504 kts | 180° |
| 2026-05-06 02:23 | 21.77811 | -80.92226 | 35054 ft | 504 kts | 180° |
| 2026-05-06 02:24 | 21.70804 | -80.91953 | 35053 ft | 504 kts | 180° |
| 2026-05-06 02:24 | 21.63803 | -80.91681 | 35051 ft | 504 kts | 180° |
| 2026-05-06 02:25 | 21.56784 | -80.91409 | 35051 ft | 504 kts | 180° |
| 2026-05-06 02:25 | 21.49776 | -80.91137 | 35051 ft | 504 kts | 180° |
| 2026-05-06 02:26 | 21.42771 | -80.90869 | 35050 ft | 503 kts | 180° |
| 2026-05-06 02:26 | 21.35815 | -80.90604 | 35048 ft | 503 kts | 180° |
| 2026-05-06 02:27 | 21.28813 | -80.90336 | 35048 ft | 503 kts | 180° |
| 2026-05-06 02:27 | 21.21813 | -80.90069 | 35048 ft | 503 kts | 180° |
| 2026-05-06 02:28 | 21.14817 | -80.89802 | 35045 ft | 503 kts | 180° |
| 2026-05-06 02:28 | 21.07826 | -80.89535 | 35046 ft | 502 kts | 180° |
| 2026-05-06 02:29 | 21.00841 | -80.89246 | 35044 ft | 502 kts | 179° |
| 2026-05-06 02:29 | 20.93904 | -80.88933 | 35044 ft | 502 kts | 179° |
| 2026-05-06 02:30 | 20.86919 | -80.88618 | 35043 ft | 502 kts | 179° |
| 2026-05-06 02:30 | 20.79947 | -80.88308 | 35041 ft | 502 kts | 179° |
| 2026-05-06 02:31 | 20.72960 | -80.88001 | 35044 ft | 502 kts | 179° |
| 2026-05-06 02:31 | 20.65982 | -80.87693 | 35043 ft | 502 kts | 179° |
| 2026-05-06 02:32 | 20.59013 | -80.87387 | 35044 ft | 501 kts | 179° |
| 2026-05-06 02:32 | 20.52038 | -80.87080 | 35043 ft | 501 kts | 179° |
| 2026-05-06 02:33 | 20.45066 | -80.86774 | 35042 ft | 501 kts | 179° |
| 2026-05-06 02:33 | 20.42757 | -80.86672 | 35043 ft | 501 kts | 179° |
| 2026-05-06 02:34 | 20.31162 | -80.86164 | 35042 ft | 501 kts | 179° |
| 2026-05-06 02:34 | 20.24198 | -80.85858 | 35040 ft | 501 kts | 179° |
| 2026-05-06 02:35 | 20.17237 | -80.85554 | 35039 ft | 501 kts | 179° |
| 2026-05-06 02:35 | 20.10273 | -80.85249 | 35039 ft | 500 kts | 179° |
| 2026-05-06 02:36 | 20.03316 | -80.84945 | 35041 ft | 500 kts | 178° |
| 2026-05-06 02:36 | 19.96358 | -80.84634 | 35044 ft | 500 kts | 178° |
| 2026-05-06 02:37 | 19.89407 | -80.84297 | 35044 ft | 500 kts | 178° |
| 2026-05-06 02:37 | 19.82512 | -80.83959 | 35042 ft | 499 kts | 178° |
| 2026-05-06 02:38 | 19.75564 | -80.83623 | 35040 ft | 499 kts | 178° |
| 2026-05-06 02:38 | 19.68618 | -80.83289 | 35039 ft | 499 kts | 178° |
| 2026-05-06 02:39 | 19.61684 | -80.82957 | 35038 ft | 498 kts | 178° |
| 2026-05-06 02:39 | 19.54801 | -80.82626 | 35039 ft | 498 kts | 178° |
| 2026-05-06 02:40 | 19.47876 | -80.82295 | 35042 ft | 498 kts | 178° |
| 2026-05-06 02:40 | 19.42077 | -80.82017 | 35041 ft | 498 kts | 178° |
| 2026-05-06 02:41 | 19.35159 | -80.81686 | 35040 ft | 498 kts | 178° |
| 2026-05-06 02:41 | 19.28281 | -80.81357 | 35039 ft | 497 kts | 178° |
| 2026-05-06 02:42 | 19.21363 | -80.81027 | 35038 ft | 497 kts | 178° |
| 2026-05-06 02:42 | 19.14450 | -80.80699 | 35037 ft | 497 kts | 178° |
| 2026-05-06 02:43 | 19.07540 | -80.80371 | 35040 ft | 497 kts | 178° |
| 2026-05-06 02:43 | 19.00621 | -80.80043 | 35039 ft | 497 kts | 178° |
| 2026-05-06 02:44 | 18.93722 | -80.79716 | 35036 ft | 496 kts | 178° |
| 2026-05-06 02:44 | 18.86857 | -80.79391 | 35038 ft | 496 kts | 178° |
| 2026-05-06 02:45 | 18.79961 | -80.79065 | 35037 ft | 496 kts | 178° |
| 2026-05-06 02:45 | 18.73065 | -80.78739 | 35038 ft | 495 kts | 178° |
| 2026-05-06 02:46 | 18.66179 | -80.78414 | 35040 ft | 495 kts | 178° |
| 2026-05-06 02:46 | 18.59294 | -80.78089 | 35033 ft | 495 kts | 178° |
| 2026-05-06 02:47 | 18.52419 | -80.77765 | 35033 ft | 494 kts | 178° |
| 2026-05-06 02:47 | 18.45550 | -80.77441 | 35032 ft | 494 kts | 177° |
| 2026-05-06 02:48 | 18.38724 | -80.77120 | 35033 ft | 494 kts | 177° |
| 2026-05-06 02:48 | 18.31860 | -80.76797 | 35032 ft | 493 kts | 177° |
| 2026-05-06 02:49 | 18.24997 | -80.76475 | 35030 ft | 493 kts | 177° |
| 2026-05-06 02:49 | 18.18141 | -80.76153 | 35028 ft | 493 kts | 177° |
| 2026-05-06 02:50 | 18.11282 | -80.75831 | 35031 ft | 493 kts | 177° |
| 2026-05-06 02:50 | 18.04429 | -80.75510 | 35024 ft | 492 kts | 177° |
| 2026-05-06 02:51 | 17.97634 | -80.75191 | 35027 ft | 492 kts | 177° |
| 2026-05-06 02:51 | 17.90787 | -80.74871 | 35028 ft | 492 kts | 177° |
| 2026-05-06 02:52 | 17.83944 | -80.74551 | 35026 ft | 491 kts | 177° |
| 2026-05-06 02:52 | 17.77109 | -80.74231 | 35027 ft | 491 kts | 177° |
| 2026-05-06 02:53 | 17.70277 | -80.73912 | 35025 ft | 491 kts | 177° |
| 2026-05-06 02:53 | 17.64540 | -80.73644 | 35023 ft | 491 kts | 177° |
| 2026-05-06 02:54 | 17.57766 | -80.73327 | 35025 ft | 490 kts | 177° |
| 2026-05-06 02:54 | 17.50936 | -80.73007 | 35020 ft | 490 kts | 177° |
| 2026-05-06 02:55 | 17.44120 | -80.72688 | 35026 ft | 490 kts | 177° |
| 2026-05-06 02:55 | 17.37309 | -80.72369 | 35017 ft | 490 kts | 177° |
| 2026-05-06 02:56 | 17.30502 | -80.72050 | 35017 ft | 490 kts | 177° |
| 2026-05-06 02:56 | 17.23689 | -80.71732 | 35016 ft | 489 kts | 177° |
| 2026-05-06 02:57 | 17.16886 | -80.71414 | 35014 ft | 489 kts | 177° |
| 2026-05-06 02:57 | 17.10122 | -80.71098 | 35018 ft | 489 kts | 177° |
| 2026-05-06 02:58 | 17.03325 | -80.70781 | 35014 ft | 489 kts | 177° |
| 2026-05-06 02:58 | 16.96530 | -80.70465 | 35019 ft | 488 kts | 177° |
| 2026-05-06 02:59 | 16.89733 | -80.70148 | 35020 ft | 488 kts | 177° |
| 2026-05-06 02:59 | 16.82946 | -80.69832 | 35017 ft | 488 kts | 177° |
| 2026-05-06 03:00 | 16.76156 | -80.69517 | 35018 ft | 488 kts | 177° |
| 2026-05-06 03:00 | 16.69372 | -80.69201 | 35011 ft | 488 kts | 177° |
| 2026-05-06 03:01 | 16.62639 | -80.68889 | 35013 ft | 487 kts | 177° |
| 2026-05-06 03:01 | 16.55857 | -80.68574 | 35010 ft | 487 kts | 178° |
| 2026-05-06 03:02 | 16.49083 | -80.68260 | 35011 ft | 487 kts | 178° |
| 2026-05-06 03:02 | 16.42314 | -80.67946 | 35013 ft | 487 kts | 178° |
| 2026-05-06 03:03 | 16.35546 | -80.67633 | 35006 ft | 486 kts | 178° |
| 2026-05-06 03:03 | 16.28789 | -80.67320 | 35008 ft | 486 kts | 178° |
| 2026-05-06 03:04 | 16.22032 | -80.67008 | 35017 ft | 486 kts | 178° |
| 2026-05-06 03:04 | 16.15277 | -80.66696 | 35016 ft | 486 kts | 178° |
| 2026-05-06 03:05 | 16.08520 | -80.66384 | 35012 ft | 486 kts | 178° |
| 2026-05-06 03:05 | 16.01810 | -80.66074 | 35008 ft | 485 kts | 178° |
| 2026-05-06 03:06 | 15.95060 | -80.65763 | 35010 ft | 485 kts | 178° |
| 2026-05-06 03:06 | 15.88314 | -80.65452 | 35011 ft | 485 kts | 178° |
| 2026-05-06 03:07 | 15.81580 | -80.65142 | 34999 ft | 484 kts | 178° |
| 2026-05-06 03:07 | 15.74851 | -80.64832 | 35007 ft | 484 kts | 178° |
| 2026-05-06 03:08 | 15.68127 | -80.64523 | 35002 ft | 483 kts | 178° |
| 2026-05-06 03:08 | 15.61407 | -80.64214 | 35006 ft | 483 kts | 178° |
| 2026-05-06 03:09 | 15.54742 | -80.63908 | 35009 ft | 483 kts | 178° |
| 2026-05-06 03:09 | 15.48023 | -80.63599 | 35003 ft | 482 kts | 178° |
| 2026-05-06 03:10 | 15.41316 | -80.63292 | 35012 ft | 482 kts | 178° |
| 2026-05-06 03:10 | 15.34882 | -80.62997 | 35011 ft | 482 kts | 178° |
| 2026-05-06 03:11 | 15.28216 | -80.62691 | 35009 ft | 482 kts | 178° |
| 2026-05-06 03:11 | 15.21552 | -80.62386 | 35010 ft | 482 kts | 178° |
| 2026-05-06 03:12 | 15.14900 | -80.62082 | 35006 ft | 482 kts | 178° |
| 2026-05-06 03:12 | 15.08195 | -80.61775 | 35006 ft | 482 kts | 178° |
| 2026-05-06 03:13 | 15.01488 | -80.61468 | 35009 ft | 482 kts | 178° |
| 2026-05-06 03:13 | 14.94820 | -80.60685 | 35012 ft | 482 kts | 171° |
| 2026-05-06 03:14 | 14.88201 | -80.59482 | 35002 ft | 483 kts | 169° |
| 2026-05-06 03:14 | 14.81579 | -80.58263 | 35008 ft | 483 kts | 170° |
| 2026-05-06 03:15 | 14.74955 | -80.57094 | 35012 ft | 483 kts | 170° |
| 2026-05-06 03:15 | 14.68320 | -80.55953 | 35008 ft | 483 kts | 171° |
| 2026-05-06 03:16 | 14.61726 | -80.54826 | 35000 ft | 483 kts | 171° |
| 2026-05-06 03:16 | 14.55098 | -80.53692 | 35001 ft | 483 kts | 170° |
| 2026-05-06 03:17 | 14.48462 | -80.52556 | 35003 ft | 483 kts | 170° |
| 2026-05-06 03:17 | 14.41824 | -80.51419 | 35000 ft | 483 kts | 170° |
| 2026-05-06 03:18 | 14.35197 | -80.50285 | 35001 ft | 482 kts | 170° |
| 2026-05-06 03:18 | 14.28575 | -80.49153 | 35002 ft | 482 kts | 170° |
| 2026-05-06 03:19 | 14.21992 | -80.48028 | 35001 ft | 482 kts | 170° |
| 2026-05-06 03:19 | 14.15382 | -80.46899 | 34999 ft | 481 kts | 170° |
| 2026-05-06 03:20 | 14.05464 | -80.45206 | 34998 ft | 481 kts | 170° |
| 2026-05-06 03:20 | 13.98853 | -80.44079 | 34997 ft | 481 kts | 170° |
| 2026-05-06 03:21 | 13.92256 | -80.42954 | 34994 ft | 480 kts | 170° |
| 2026-05-06 03:21 | 13.85658 | -80.41830 | 34993 ft | 480 kts | 170° |
| 2026-05-06 03:22 | 13.79066 | -80.40708 | 34994 ft | 479 kts | 170° |
| 2026-05-06 03:22 | 13.72525 | -80.39595 | 34996 ft | 479 kts | 170° |
| 2026-05-06 03:23 | 13.65949 | -80.38477 | 34997 ft | 478 kts | 170° |
| 2026-05-06 03:23 | 13.59385 | -80.37361 | 34990 ft | 478 kts | 170° |
| 2026-05-06 03:24 | 13.52831 | -80.36248 | 34988 ft | 477 kts | 170° |
| 2026-05-06 03:24 | 13.46288 | -80.35138 | 34989 ft | 476 kts | 170° |
| 2026-05-06 03:25 | 13.39752 | -80.34028 | 34990 ft | 476 kts | 170° |
| 2026-05-06 03:25 | 13.33224 | -80.32921 | 34989 ft | 475 kts | 170° |
| 2026-05-06 03:26 | 13.26694 | -80.31814 | 34990 ft | 475 kts | 170° |
| 2026-05-06 03:26 | 13.20202 | -80.30715 | 34987 ft | 475 kts | 171° |
| 2026-05-06 03:27 | 13.13683 | -80.29611 | 34987 ft | 475 kts | 171° |
| 2026-05-06 03:27 | 13.07157 | -80.28507 | 34985 ft | 475 kts | 171° |
| 2026-05-06 03:28 | 13.00633 | -80.27403 | 34984 ft | 475 kts | 171° |
| 2026-05-06 03:28 | 12.95214 | -80.26487 | 34984 ft | 475 kts | 171° |
| 2026-05-06 03:29 | 12.87629 | -80.25206 | 34979 ft | 475 kts | 171° |
| 2026-05-06 03:29 | 12.81106 | -80.24104 | 34978 ft | 475 kts | 171° |
| 2026-05-06 03:30 | 12.75675 | -80.23188 | 34980 ft | 475 kts | 171° |
| 2026-05-06 03:30 | 12.69138 | -80.22085 | 34980 ft | 475 kts | 171° |
| 2026-05-06 03:31 | 12.62603 | -80.20983 | 34978 ft | 475 kts | 171° |
| 2026-05-06 03:31 | 12.56074 | -80.19882 | 34979 ft | 475 kts | 171° |
| 2026-05-06 03:32 | 12.49551 | -80.18783 | 34977 ft | 475 kts | 171° |
| 2026-05-06 03:32 | 12.43068 | -80.17693 | 34975 ft | 475 kts | 171° |
| 2026-05-06 03:33 | 12.36551 | -80.16596 | 34976 ft | 474 kts | 171° |
| 2026-05-06 03:33 | 12.30035 | -80.15500 | 34977 ft | 474 kts | 171° |
| 2026-05-06 03:34 | 12.23528 | -80.14407 | 34976 ft | 474 kts | 171° |
| 2026-05-06 03:34 | 12.17013 | -80.13311 | 34973 ft | 473 kts | 171° |
| 2026-05-06 03:35 | 12.10546 | -80.12226 | 34972 ft | 473 kts | 171° |
| 2026-05-06 03:35 | 12.04048 | -80.11136 | 34970 ft | 473 kts | 171° |
| 2026-05-06 03:36 | 11.97559 | -80.10047 | 34973 ft | 472 kts | 172° |
| 2026-05-06 03:36 | 11.91071 | -80.08959 | 34967 ft | 472 kts | 172° |
| 2026-05-06 03:37 | 11.84594 | -80.07873 | 34973 ft | 471 kts | 171° |
| 2026-05-06 03:37 | 11.78122 | -80.06789 | 34966 ft | 471 kts | 171° |
| 2026-05-06 03:38 | 11.71653 | -80.05706 | 34970 ft | 471 kts | 171° |
| 2026-05-06 03:38 | 11.65185 | -80.04624 | 34965 ft | 471 kts | 171° |
| 2026-05-06 03:39 | 11.58766 | -80.03550 | 34964 ft | 470 kts | 171° |
| 2026-05-06 03:39 | 11.52300 | -80.02469 | 34962 ft | 470 kts | 171° |
| 2026-05-06 03:40 | 11.45836 | -80.01389 | 34964 ft | 470 kts | 171° |
| 2026-05-06 03:40 | 11.39378 | -80.00310 | 34964 ft | 470 kts | 171° |
| 2026-05-06 03:41 | 11.32911 | -79.99230 | 34963 ft | 470 kts | 171° |
| 2026-05-06 03:41 | 11.26479 | -79.98156 | 34965 ft | 470 kts | 171° |
| 2026-05-06 03:42 | 11.20015 | -79.97078 | 34963 ft | 470 kts | 171° |
| 2026-05-06 03:42 | 11.13552 | -79.96000 | 34963 ft | 470 kts | 171° |
| 2026-05-06 03:43 | 11.07099 | -79.94925 | 34965 ft | 470 kts | 171° |
| 2026-05-06 03:43 | 11.00646 | -79.93850 | 34960 ft | 470 kts | 171° |
| 2026-05-06 03:44 | 10.94195 | -79.92775 | 34961 ft | 470 kts | 171° |
| 2026-05-06 03:44 | 10.87743 | -79.91702 | 34958 ft | 470 kts | 171° |
| 2026-05-06 03:45 | 10.81287 | -79.90628 | 34959 ft | 470 kts | 171° |
| 2026-05-06 03:45 | 10.74831 | -79.89554 | 34959 ft | 470 kts | 171° |
| 2026-05-06 03:46 | 10.68418 | -79.88488 | 34958 ft | 470 kts | 171° |
| 2026-05-06 03:46 | 10.61966 | -79.87416 | 34959 ft | 470 kts | 171° |
| 2026-05-06 03:47 | 10.55507 | -79.86343 | 34958 ft | 470 kts | 171° |
| 2026-05-06 03:47 | 10.49047 | -79.85270 | 34959 ft | 470 kts | 171° |
| 2026-05-06 03:48 | 10.42609 | -79.84134 | 34949 ft | 470 kts | 165° |
| 2026-05-06 03:48 | 10.39565 | -79.82872 | 34518 ft | 476 kts | 150° |
| 2026-05-06 03:48 | 10.36725 | -79.81139 | 33907 ft | 475 kts | 148° |
| 2026-05-06 03:49 | 10.33924 | -79.79363 | 33117 ft | 475 kts | 148° |
| 2026-05-06 03:49 | 10.31118 | -79.77579 | 32338 ft | 476 kts | 148° |
| 2026-05-06 03:49 | 10.28298 | -79.75807 | 31547 ft | 477 kts | 148° |
| 2026-05-06 03:49 | 10.25498 | -79.74073 | 30736 ft | 479 kts | 148° |
| 2026-05-06 03:50 | 10.22639 | -79.72323 | 30095 ft | 477 kts | 148° |
| 2026-05-06 03:50 | 10.19800 | -79.70596 | 29378 ft | 473 kts | 148° |
| 2026-05-06 03:50 | 10.16990 | -79.68892 | 28744 ft | 468 kts | 148° |
| 2026-05-06 03:50 | 10.14209 | -79.67207 | 28135 ft | 462 kts | 148° |
| 2026-05-06 03:51 | 10.11465 | -79.65544 | 27545 ft | 457 kts | 148° |
| 2026-05-06 03:51 | 10.08755 | -79.63900 | 26966 ft | 452 kts | 148° |
| 2026-05-06 03:51 | 10.06067 | -79.62268 | 26390 ft | 447 kts | 148° |
| 2026-05-06 03:51 | 10.03411 | -79.60657 | 25821 ft | 443 kts | 148° |
| 2026-05-06 03:52 | 10.00774 | -79.59056 | 25225 ft | 440 kts | 148° |
| 2026-05-06 03:52 | 9.98167 | -79.57474 | 24912 ft | 430 kts | 148° |
| 2026-05-06 03:52 | 9.95632 | -79.55937 | 24682 ft | 418 kts | 148° |
| 2026-05-06 03:52 | 9.93174 | -79.54446 | 24504 ft | 406 kts | 147° |
| 2026-05-06 03:53 | 9.90775 | -79.52990 | 24340 ft | 395 kts | 147° |
| 2026-05-06 03:53 | 9.88476 | -79.51597 | 24178 ft | 385 kts | 147° |
| 2026-05-06 03:53 | 9.86203 | -79.50227 | 24001 ft | 376 kts | 149° |
| 2026-05-06 03:53 | 9.83877 | -79.49030 | 23634 ft | 374 kts | 153° |
| 2026-05-06 03:54 | 9.81473 | -79.47950 | 23208 ft | 373 kts | 155° |
| 2026-05-06 03:54 | 9.79105 | -79.46926 | 22794 ft | 370 kts | 155° |
| 2026-05-06 03:54 | 9.76744 | -79.45900 | 22391 ft | 367 kts | 155° |
| 2026-05-06 03:54 | 9.74431 | -79.44880 | 22003 ft | 364 kts | 154° |
| 2026-05-06 03:55 | 9.72112 | -79.43845 | 21625 ft | 362 kts | 154° |
| 2026-05-06 03:55 | 9.69815 | -79.42811 | 21238 ft | 359 kts | 154° |
| 2026-05-06 03:55 | 9.67543 | -79.41785 | 20862 ft | 356 kts | 154° |
| 2026-05-06 03:55 | 9.65291 | -79.40766 | 20489 ft | 354 kts | 154° |
| 2026-05-06 03:56 | 9.63046 | -79.39750 | 20120 ft | 352 kts | 154° |
| 2026-05-06 03:56 | 9.60816 | -79.38741 | 19747 ft | 349 kts | 154° |
| 2026-05-06 03:56 | 9.58604 | -79.37742 | 19378 ft | 347 kts | 154° |
| 2026-05-06 03:56 | 9.56456 | -79.36635 | 18996 ft | 344 kts | 145° |
| 2026-05-06 03:57 | 9.54512 | -79.35249 | 18643 ft | 341 kts | 141° |
| 2026-05-06 03:57 | 9.52624 | -79.33799 | 18275 ft | 339 kts | 140° |
| 2026-05-06 03:57 | 9.50755 | -79.32349 | 17891 ft | 337 kts | 140° |
| 2026-05-06 03:57 | 9.48895 | -79.30920 | 17507 ft | 334 kts | 141° |
| 2026-05-06 03:58 | 9.47046 | -79.29515 | 17148 ft | 331 kts | 141° |
| 2026-05-06 03:58 | 9.45227 | -79.28144 | 16785 ft | 329 kts | 141° |
| 2026-05-06 03:58 | 9.43397 | -79.26772 | 16433 ft | 326 kts | 141° |
| 2026-05-06 03:58 | 9.41577 | -79.25412 | 16079 ft | 324 kts | 141° |
| 2026-05-06 03:59 | 9.39912 | -79.24170 | 15746 ft | 323 kts | 141° |
| 2026-05-06 03:59 | 9.38112 | -79.22827 | 15402 ft | 321 kts | 141° |
| 2026-05-06 03:59 | 9.36319 | -79.21490 | 15046 ft | 319 kts | 141° |
| 2026-05-06 03:59 | 9.34534 | -79.20159 | 14695 ft | 317 kts | 141° |
| 2026-05-06 04:00 | 9.32762 | -79.18839 | 14347 ft | 316 kts | 141° |
| 2026-05-06 04:00 | 9.30991 | -79.17520 | 13985 ft | 315 kts | 141° |
| 2026-05-06 04:00 | 9.29226 | -79.16205 | 13619 ft | 314 kts | 141° |
| 2026-05-06 04:00 | 9.27320 | -79.15174 | 13219 ft | 318 kts | 161° |
| 2026-05-06 04:01 | 9.25119 | -79.14961 | 12845 ft | 322 kts | 184° |
| 2026-05-06 04:01 | 9.22964 | -79.15601 | 12440 ft | 327 kts | 206° |
| 2026-05-06 04:01 | 9.21023 | -79.16811 | 12053 ft | 327 kts | 211° |
| 2026-05-06 04:01 | 9.19132 | -79.18096 | 11654 ft | 328 kts | 212° |
| 2026-05-06 04:02 | 9.17248 | -79.19393 | 11242 ft | 328 kts | 212° |
| 2026-05-06 04:02 | 9.15361 | -79.20686 | 10836 ft | 326 kts | 212° |
| 2026-05-06 04:02 | 9.13504 | -79.21948 | 10639 ft | 314 kts | 212° |
| 2026-05-06 04:02 | 9.11730 | -79.23145 | 10535 ft | 299 kts | 212° |
| 2026-05-06 04:03 | 9.10017 | -79.24296 | 10258 ft | 293 kts | 212° |
| 2026-05-06 04:03 | 9.08318 | -79.25433 | 9847 ft | 291 kts | 212° |
| 2026-05-06 04:03 | 9.06634 | -79.26560 | 9335 ft | 290 kts | 212° |
| 2026-05-06 04:03 | 9.04953 | -79.27684 | 8841 ft | 289 kts | 212° |
| 2026-05-06 04:04 | 9.03282 | -79.28801 | 8380 ft | 287 kts | 212° |
| 2026-05-06 04:04 | 9.01608 | -79.29886 | 7948 ft | 285 kts | 209° |
| 2026-05-06 04:04 | 8.99875 | -79.30860 | 7502 ft | 283 kts | 207° |
| 2026-05-06 04:04 | 8.98167 | -79.31777 | 7137 ft | 279 kts | 207° |
| 2026-05-06 04:05 | 8.96458 | -79.32693 | 6790 ft | 278 kts | 207° |
| 2026-05-06 04:05 | 8.94750 | -79.33615 | 6429 ft | 279 kts | 207° |
| 2026-05-06 04:05 | 8.93043 | -79.34541 | 6069 ft | 279 kts | 207° |
| 2026-05-06 04:05 | 8.91330 | -79.35475 | 5699 ft | 278 kts | 207° |
| 2026-05-06 04:06 | 8.89631 | -79.36404 | 5342 ft | 277 kts | 208° |
| 2026-05-06 04:06 | 8.87937 | -79.37332 | 4989 ft | 276 kts | 208° |
| 2026-05-06 04:06 | 8.86258 | -79.38251 | 4736 ft | 268 kts | 208° |
| 2026-05-06 04:06 | 8.84750 | -79.39246 | 4607 ft | 253 kts | 228° |
| 2026-05-06 04:07 | 8.84042 | -79.40773 | 4512 ft | 235 kts | 266° |
| 2026-05-06 04:07 | 8.84363 | -79.42333 | 4161 ft | 227 kts | 301° |
| 2026-05-06 04:07 | 8.85187 | -79.43679 | 3786 ft | 223 kts | 304° |
| 2026-05-06 04:07 | 8.86008 | -79.44993 | 3488 ft | 217 kts | 304° |
| 2026-05-06 04:08 | 8.87009 | -79.46061 | 3208 ft | 207 kts | 335° |
| 2026-05-06 04:08 | 8.88325 | -79.46503 | 3063 ft | 192 kts | 345° |
| 2026-05-06 04:08 | 8.89589 | -79.46900 | 3022 ft | 190 kts | 346° |
| 2026-05-06 04:08 | 8.90858 | -79.46858 | 2947 ft | 186 kts | 22° |
| 2026-05-06 04:09 | 8.92055 | -79.46324 | 2774 ft | 193 kts | 25° |
| 2026-05-06 04:09 | 8.93375 | -79.45747 | 2660 ft | 223 kts | 25° |
| 2026-05-06 04:09 | 8.94790 | -79.44992 | 2257 ft | 235 kts | 30° |
| 2026-05-06 04:09 | 8.96152 | -79.44197 | 1905 ft | 215 kts | 30° |
| 2026-05-06 04:10 | 8.97397 | -79.43479 | 1626 ft | 198 kts | 29° |
| 2026-05-06 04:10 | 8.98551 | -79.42818 | 1382 ft | 183 kts | 28° |
| 2026-05-06 04:10 | 8.99621 | -79.42206 | 1180 ft | 169 kts | 28° |
| 2026-05-06 04:10 | 9.00588 | -79.41652 | 991 ft | 153 kts | 28° |
| 2026-05-06 04:11 | 9.01486 | -79.41138 | 804 ft | 146 kts | 29° |
| 2026-05-06 04:11 | 9.02368 | -79.40633 | 621 ft | 146 kts | 28° |
| 2026-05-06 04:11 | 9.03256 | -79.40124 | 408 ft | 147 kts | 28° |
| 2026-05-06 04:11 | 9.04146 | -79.39619 | 217 ft | 145 kts | 28° |
| 2026-05-06 04:12 | 9.05027 | -79.39112 | 37 ft | 146 kts | 28° |
| 2026-05-06 04:12 | 9.05834 | -79.38652 | 31 ft | 116 kts | 30° |
| 2026-05-06 04:12 | 9.06405 | -79.38328 | 28 ft | 69 kts | 29° |
| 2026-05-06 04:12 | 9.06752 | -79.38131 | 28 ft | 53 kts | 29° |
| 2026-05-06 04:13 | 9.07001 | -79.37988 | 29 ft | 31 kts | 30° |
| 2026-05-06 04:13 | 9.07123 | -79.37928 | 29 ft | 15 kts | 359° |
| 2026-05-06 04:13 | 9.07174 | -79.37969 | 29 ft | 14 kts | 302° |
| 2026-05-06 04:13 | 9.07202 | -79.38026 | 29 ft | 8 kts | 280° |
| 2026-05-06 04:14 | 9.07171 | -79.38075 | 29 ft | 10 kts | 214° |
| 2026-05-06 04:14 | 9.07117 | -79.38116 | 29 ft | 10 kts | 237° |
| 2026-05-06 04:14 | 9.07127 | -79.38181 | 29 ft | 10 kts | 298° |
| 2026-05-06 04:14 | 9.07161 | -79.38244 | 29 ft | 11 kts | 298° |
| 2026-05-06 04:15 | 9.07186 | -79.38315 | 29 ft | 11 kts | 266° |
| 2026-05-06 04:15 | 9.07138 | -79.38367 | 29 ft | 10 kts | 210° |
| 2026-05-06 04:15 | 9.07075 | -79.38402 | 29 ft | 10 kts | 208° |
| 2026-05-06 04:15 | 9.07014 | -79.38434 | 29 ft | 10 kts | 208° |
| 2026-05-06 04:16 | 9.06973 | -79.38466 | 29 ft | 6 kts | 244° |
| 2026-05-06 04:16 | 9.06980 | -79.38485 | 29 ft | 4 kts | 303° |
| 2026-05-06 04:16 | 9.07001 | -79.38506 | 30 ft | 2 kts | 316° |
| 2026-05-06 04:16 | 9.07009 | -79.38515 | 30 ft | 0 kts | 317° |